sensor_id;sensor_type;location;lat;lon;timestamp;pressure;altitude;pressure_sealevel;temperature;humidity
35676;BME280;21790;42.668;23.298;2023-03-23T00:06:52;94652.13;;;12.98;51.52
35676;BME280;21790;42.668;23.298;2023-03-23T00:09:18;94661.25;;;13.14;51.24
35676;BME280;21790;42.668;23.298;2023-03-23T02:06:44;94639.50;;;12.68;51.43
35676;BME280;21790;42.668;23.298;2023-03-23T04:13:32;94703.97;;;12.15;52.37
35676;BME280;21790;42.668;23.298;2023-03-23T04:31:28;94709.44;;;13.60;62.82
35676;BME280;21790;42.668;23.298;2023-03-23T04:33:54;94719.22;;;14.60;54.53
35676;BME280;21790;42.668;23.298;2023-03-23T04:36:20;94718.59;;;14.71;49.78
35676;BME280;21790;42.668;23.298;2023-03-23T04:45:21;94726.13;;;13.46;48.13
35676;BME280;21790;42.668;23.298;2023-03-23T04:47:48;94723.91;;;13.35;48.34
35676;BME280;21790;42.668;23.298;2023-03-23T04:50:25;94726.94;;;13.08;49.11
35676;BME280;21790;42.668;23.298;2023-03-23T04:52:51;94727.13;;;12.66;50.16
35676;BME280;21790;42.668;23.298;2023-03-23T04:55:19;94730.75;;;12.57;50.42
35676;BME280;21790;42.668;23.298;2023-03-23T04:57:46;94735.41;;;12.75;49.86
35676;BME280;21790;42.668;23.298;2023-03-23T05:00:12;94744.31;;;12.55;50.30
35676;BME280;21790;42.668;23.298;2023-03-23T05:02:40;94733.66;;;12.39;50.58
35676;BME280;21790;42.668;23.298;2023-03-23T05:05:10;94743.59;;;12.69;50.22
35676;BME280;21790;42.668;23.298;2023-03-23T05:07:38;94744.09;;;12.44;50.69
35676;BME280;21790;42.668;23.298;2023-03-23T05:10:05;94742.97;;;12.50;51.07
35676;BME280;21790;42.668;23.298;2023-03-23T05:12:31;94748.75;;;12.38;51.43
35676;BME280;21790;42.668;23.298;2023-03-23T05:14:57;94754.66;;;12.31;51.74
35676;BME280;21790;42.668;23.298;2023-03-23T05:17:23;94753.94;;;12.45;51.64
35676;BME280;21790;42.668;23.298;2023-03-23T05:19:50;94762.91;;;12.40;51.99
35676;BME280;21790;42.668;23.298;2023-03-23T05:22:16;94748.88;;;12.43;51.96
35676;BME280;21790;42.668;23.298;2023-03-23T05:24:42;94744.63;;;12.57;51.97
35676;BME280;21790;42.668;23.298;2023-03-23T05:27:09;94759.25;;;12.57;52.33
35676;BME280;21790;42.668;23.298;2023-03-23T05:29:35;94764.69;;;12.52;52.45
35676;BME280;21790;42.668;23.298;2023-03-23T05:32:04;94762.72;;;12.67;52.53
35676;BME280;21790;42.668;23.298;2023-03-23T05:34:31;94757.47;;;12.69;52.50
35676;BME280;21790;42.668;23.298;2023-03-23T05:37:01;94774.59;;;12.82;52.28
35676;BME280;21790;42.668;23.298;2023-03-23T05:39:28;94778.91;;;12.83;52.29
35676;BME280;21790;42.668;23.298;2023-03-23T05:41:54;94773.78;;;12.91;52.26
35676;BME280;21790;42.668;23.298;2023-03-23T05:44:20;94781.81;;;12.89;52.38
35676;BME280;21790;42.668;23.298;2023-03-23T05:46:46;94777.25;;;13.00;52.32
35676;BME280;21790;42.668;23.298;2023-03-23T05:49:14;94772.34;;;13.19;52.03
35676;BME280;21790;42.668;23.298;2023-03-23T05:51:42;94783.13;;;13.17;51.70
35676;BME280;21790;42.668;23.298;2023-03-23T05:54:08;94789.38;;;13.27;51.44
35676;BME280;21790;42.668;23.298;2023-03-23T05:56:35;94785.91;;;13.32;51.54
35676;BME280;21790;42.668;23.298;2023-03-23T05:59:01;94788.91;;;13.43;51.43
35676;BME280;21790;42.668;23.298;2023-03-23T06:01:28;94789.28;;;13.36;51.52
35676;BME280;21790;42.668;23.298;2023-03-23T06:03:54;94785.09;;;13.40;51.43
35676;BME280;21790;42.668;23.298;2023-03-23T06:06:27;94790.53;;;13.35;51.55
35676;BME280;21790;42.668;23.298;2023-03-23T06:08:55;94789.97;;;13.46;51.13
35676;BME280;21790;42.668;23.298;2023-03-23T06:11:24;94788.03;;;13.37;51.62
35676;BME280;21790;42.668;23.298;2023-03-23T06:13:52;94786.97;;;13.64;50.97
35676;BME280;21790;42.668;23.298;2023-03-23T06:16:18;94790.31;;;13.97;50.90
35676;BME280;21790;42.668;23.298;2023-03-23T06:18:45;94793.81;;;14.27;50.46
35676;BME280;21790;42.668;23.298;2023-03-23T06:21:12;94795.88;;;14.47;49.95
35676;BME280;21790;42.668;23.298;2023-03-23T06:23:38;94785.19;;;14.60;49.38
35676;BME280;21790;42.668;23.298;2023-03-23T06:26:06;94786.25;;;14.83;49.30
35676;BME280;21790;42.668;23.298;2023-03-23T06:28:33;94784.16;;;14.98;48.56
35676;BME280;21790;42.668;23.298;2023-03-23T06:31:00;94787.63;;;15.13;47.97
35676;BME280;21790;42.668;23.298;2023-03-23T06:33:27;94785.81;;;15.10;48.00
35676;BME280;21790;42.668;23.298;2023-03-23T06:35:53;94781.53;;;14.89;47.93
35676;BME280;21790;42.668;23.298;2023-03-23T06:38:19;94792.38;;;14.87;48.48
35676;BME280;21790;42.668;23.298;2023-03-23T06:40:45;94787.56;;;15.07;48.02
35676;BME280;21790;42.668;23.298;2023-03-23T06:43:16;94788.44;;;15.19;47.74
35676;BME280;21790;42.668;23.298;2023-03-23T06:45:42;94788.41;;;15.39;47.47
35676;BME280;21790;42.668;23.298;2023-03-23T06:48:08;94789.59;;;15.53;47.58
35676;BME280;21790;42.668;23.298;2023-03-23T06:50:33;94795.69;;;15.83;47.28
35676;BME280;21790;42.668;23.298;2023-03-23T06:52:59;94790.97;;;15.95;46.58
35676;BME280;21790;42.668;23.298;2023-03-23T06:55:25;94800.28;;;16.17;46.06
35676;BME280;21790;42.668;23.298;2023-03-23T06:57:50;94798.41;;;16.03;46.08
35676;BME280;21790;42.668;23.298;2023-03-23T07:00:16;94807.00;;;16.37;46.01
35676;BME280;21790;42.668;23.298;2023-03-23T07:02:42;94801.66;;;16.70;45.36
35676;BME280;21790;42.668;23.298;2023-03-23T07:05:10;94793.38;;;16.87;45.04
35676;BME280;21790;42.668;23.298;2023-03-23T07:07:37;94809.72;;;17.05;44.27
35676;BME280;21790;42.668;23.298;2023-03-23T07:10:05;94806.91;;;16.99;44.40
35676;BME280;21790;42.668;23.298;2023-03-23T07:12:31;94801.84;;;17.09;44.61
35676;BME280;21790;42.668;23.298;2023-03-23T07:14:56;94807.97;;;17.19;44.16
35676;BME280;21790;42.668;23.298;2023-03-23T07:17:22;94804.22;;;17.33;43.98
35676;BME280;21790;42.668;23.298;2023-03-23T07:19:48;94810.59;;;17.39;44.12
35676;BME280;21790;42.668;23.298;2023-03-23T07:22:13;94808.00;;;17.30;44.14
35676;BME280;21790;42.668;23.298;2023-03-23T07:24:39;94802.22;;;17.39;43.97
35676;BME280;21790;42.668;23.298;2023-03-23T07:27:05;94796.97;;;17.63;43.79
35676;BME280;21790;42.668;23.298;2023-03-23T07:29:30;94806.47;;;17.18;44.01
35676;BME280;21790;42.668;23.298;2023-03-23T07:32:01;94805.13;;;16.96;44.51
35676;BME280;21790;42.668;23.298;2023-03-23T07:34:27;94808.75;;;17.25;44.36
35676;BME280;21790;42.668;23.298;2023-03-23T07:36:53;94800.44;;;17.47;44.01
35676;BME280;21790;42.668;23.298;2023-03-23T07:39:20;94813.19;;;17.59;43.97
35676;BME280;21790;42.668;23.298;2023-03-23T07:41:45;94808.44;;;17.76;43.46
35676;BME280;21790;42.668;23.298;2023-03-23T07:44:11;94803.34;;;17.80;44.03
35676;BME280;21790;42.668;23.298;2023-03-23T07:46:36;94813.28;;;18.15;42.97
35676;BME280;21790;42.668;23.298;2023-03-23T07:49:02;94821.41;;;18.24;42.85
35676;BME280;21790;42.668;23.298;2023-03-23T07:51:31;94813.03;;;18.35;41.79
35676;BME280;21790;42.668;23.298;2023-03-23T07:53:57;94816.84;;;18.43;41.56
35676;BME280;21790;42.668;23.298;2023-03-23T07:56:24;94809.94;;;18.66;41.53
35676;BME280;21790;42.668;23.298;2023-03-23T07:58:50;94813.00;;;18.68;42.27
35676;BME280;21790;42.668;23.298;2023-03-23T08:01:16;94822.44;;;18.32;42.11
35676;BME280;21790;42.668;23.298;2023-03-23T08:03:42;94811.50;;;18.67;42.21
35676;BME280;21790;42.668;23.298;2023-03-23T08:06:08;94797.41;;;18.95;39.82
35676;BME280;21790;42.668;23.298;2023-03-23T08:08:35;94815.44;;;19.11;40.04
35676;BME280;21790;42.668;23.298;2023-03-23T08:11:01;94813.78;;;19.43;40.66
35676;BME280;21790;42.668;23.298;2023-03-23T08:13:26;94814.50;;;19.60;38.43
35676;BME280;21790;42.668;23.298;2023-03-23T08:15:53;94817.25;;;19.66;38.58
35676;BME280;21790;42.668;23.298;2023-03-23T08:18:18;94812.16;;;19.64;37.46
35676;BME280;21790;42.668;23.298;2023-03-23T08:20:44;94817.13;;;19.88;37.09
35676;BME280;21790;42.668;23.298;2023-03-23T08:23:10;94813.44;;;20.04;37.19
35676;BME280;21790;42.668;23.298;2023-03-23T08:25:36;94813.13;;;20.14;37.22
35676;BME280;21790;42.668;23.298;2023-03-23T08:28:03;94812.91;;;20.12;37.50
35676;BME280;21790;42.668;23.298;2023-03-23T08:30:30;94809.25;;;20.22;37.20
35676;BME280;21790;42.668;23.298;2023-03-23T08:32:59;94814.91;;;20.46;36.67
35676;BME280;21790;42.668;23.298;2023-03-23T08:35:26;94808.28;;;20.50;36.35
35676;BME280;21790;42.668;23.298;2023-03-23T08:37:52;94806.06;;;20.67;36.02
35676;BME280;21790;42.668;23.298;2023-03-23T08:40:22;94802.22;;;20.94;35.43
35676;BME280;21790;42.668;23.298;2023-03-23T08:42:49;94796.06;;;20.96;34.13
35676;BME280;21790;42.668;23.298;2023-03-23T08:45:18;94806.47;;;21.01;34.86
35676;BME280;21790;42.668;23.298;2023-03-23T08:47:44;94809.88;;;20.94;34.71
35676;BME280;21790;42.668;23.298;2023-03-23T08:50:14;94812.25;;;21.08;32.75
35676;BME280;21790;42.668;23.298;2023-03-23T08:52:41;94803.03;;;20.89;32.24
35676;BME280;21790;42.668;23.298;2023-03-23T08:55:09;94806.00;;;20.13;32.61
35676;BME280;21790;42.668;23.298;2023-03-23T08:57:36;94806.56;;;20.05;32.78
35676;BME280;21790;42.668;23.298;2023-03-23T09:00:03;94805.25;;;20.12;32.56
35676;BME280;21790;42.668;23.298;2023-03-23T09:02:41;94802.38;;;20.18;32.88
35676;BME280;21790;42.668;23.298;2023-03-23T09:05:09;94802.88;;;20.52;32.91
35676;BME280;21790;42.668;23.298;2023-03-23T09:07:41;94807.22;;;19.82;33.04
35676;BME280;21790;42.668;23.298;2023-03-23T09:10:08;94804.13;;;20.21;32.31
35676;BME280;21790;42.668;23.298;2023-03-23T09:12:34;94808.13;;;20.36;32.59
35676;BME280;21790;42.668;23.298;2023-03-23T09:15:00;94811.16;;;20.03;32.65
35676;BME280;21790;42.668;23.298;2023-03-23T09:17:54;94799.63;;;20.72;31.67
35676;BME280;21790;42.668;23.298;2023-03-23T09:20:25;94802.09;;;20.81;32.03
35676;BME280;21790;42.668;23.298;2023-03-23T09:22:53;94805.72;;;20.46;31.59
35676;BME280;21790;42.668;23.298;2023-03-23T09:25:21;94801.72;;;20.06;32.21
35676;BME280;21790;42.668;23.298;2023-03-23T09:27:58;94796.38;;;20.38;31.44
35676;BME280;21790;42.668;23.298;2023-03-23T09:30:29;94805.25;;;20.42;32.09
35676;BME280;21790;42.668;23.298;2023-03-23T09:32:56;94797.81;;;20.15;32.32
35676;BME280;21790;42.668;23.298;2023-03-23T09:35:23;94807.19;;;20.23;31.95
35676;BME280;21790;42.668;23.298;2023-03-23T09:37:50;94798.56;;;20.15;32.38
35676;BME280;21790;42.668;23.298;2023-03-23T09:40:23;94791.84;;;19.94;32.66
35676;BME280;21790;42.668;23.298;2023-03-23T09:48:36;94773.66;;;20.06;32.35
35676;BME280;21790;42.668;23.298;2023-03-23T09:51:38;94785.16;;;20.38;32.92
35676;BME280;21790;42.668;23.298;2023-03-23T09:56:41;94780.09;;;20.61;31.87
35676;BME280;21790;42.668;23.298;2023-03-23T09:59:30;94775.03;;;21.02;31.60
35676;BME280;21790;42.668;23.298;2023-03-23T10:02:24;94778.66;;;20.97;31.12
35676;BME280;21790;42.668;23.298;2023-03-23T10:04:49;94762.06;;;20.75;32.23
35676;BME280;21790;42.668;23.298;2023-03-23T10:07:20;94767.81;;;21.07;31.60
35676;BME280;21790;42.668;23.298;2023-03-23T10:09:50;94774.72;;;21.06;31.19
35676;BME280;21790;42.668;23.298;2023-03-23T10:15:07;94777.09;;;21.02;31.48
35676;BME280;21790;42.668;23.298;2023-03-23T10:21:03;94775.50;;;21.06;30.80
35676;BME280;21790;42.668;23.298;2023-03-23T10:28:58;94756.41;;;21.61;31.02
35676;BME280;21790;42.668;23.298;2023-03-23T10:31:31;94767.06;;;21.68;30.18
35676;BME280;21790;42.668;23.298;2023-03-23T10:34:03;94757.84;;;21.86;29.70
35676;BME280;21790;42.668;23.298;2023-03-23T10:36:34;94749.84;;;21.90;30.22
35676;BME280;21790;42.668;23.298;2023-03-23T10:41:54;94754.88;;;21.79;29.61
35676;BME280;21790;42.668;23.298;2023-03-23T10:44:23;94771.16;;;22.04;29.33
35676;BME280;21790;42.668;23.298;2023-03-23T10:47:06;94762.69;;;22.04;29.21
35676;BME280;21790;42.668;23.298;2023-03-23T10:49:55;94761.13;;;22.09;29.67
35676;BME280;21790;42.668;23.298;2023-03-23T10:55:14;94757.22;;;21.93;29.68
35676;BME280;21790;42.668;23.298;2023-03-23T10:57:43;94752.88;;;22.11;29.41
35676;BME280;21790;42.668;23.298;2023-03-23T11:00:23;94761.59;;;22.26;29.94
35676;BME280;21790;42.668;23.298;2023-03-23T11:05:48;94744.41;;;22.43;28.87
35676;BME280;21790;42.668;23.298;2023-03-23T11:08:24;94743.91;;;22.71;29.55
35676;BME280;21790;42.668;23.298;2023-03-23T11:10:55;94746.28;;;22.67;29.65
35676;BME280;21790;42.668;23.298;2023-03-23T11:13:31;94740.72;;;22.35;28.67
35676;BME280;21790;42.668;23.298;2023-03-23T11:15:58;94732.97;;;22.09;28.71
35676;BME280;21790;42.668;23.298;2023-03-23T11:21:01;94729.03;;;21.80;29.40
35676;BME280;21790;42.668;23.298;2023-03-23T11:23:36;94730.88;;;21.96;29.48
35676;BME280;21790;42.668;23.298;2023-03-23T11:26:22;94724.06;;;22.05;29.31
35676;BME280;21790;42.668;23.298;2023-03-23T11:28:57;94727.47;;;22.17;28.82
35676;BME280;21790;42.668;23.298;2023-03-23T11:31:33;94715.81;;;21.75;29.54
35676;BME280;21790;42.668;23.298;2023-03-23T11:34:09;94704.56;;;21.75;29.40
35676;BME280;21790;42.668;23.298;2023-03-23T11:36:40;94717.25;;;22.00;29.51
35676;BME280;21790;42.668;23.298;2023-03-23T11:39:30;94708.00;;;22.32;29.78
35676;BME280;21790;42.668;23.298;2023-03-23T11:41:59;94705.09;;;22.37;29.63
35676;BME280;21790;42.668;23.298;2023-03-23T11:44:33;94706.84;;;22.40;28.79
35676;BME280;21790;42.668;23.298;2023-03-23T11:49:59;94696.91;;;22.07;28.55
35676;BME280;21790;42.668;23.298;2023-03-23T11:52:40;94694.97;;;22.16;28.60
35676;BME280;21790;42.668;23.298;2023-03-23T11:57:42;94701.09;;;21.69;29.10
35676;BME280;21790;42.668;23.298;2023-03-23T12:00:21;94691.06;;;21.55;29.45
35676;BME280;21790;42.668;23.298;2023-03-23T12:11:07;94684.59;;;22.24;29.38
35676;BME280;21790;42.668;23.298;2023-03-23T12:16:19;94690.69;;;22.28;28.77
35676;BME280;21790;42.668;23.298;2023-03-23T12:30:19;94678.78;;;22.35;28.19
35676;BME280;21790;42.668;23.298;2023-03-23T12:33:11;94687.63;;;22.26;28.22
35676;BME280;21790;42.668;23.298;2023-03-23T12:49:08;94666.31;;;21.85;30.11
35676;BME280;21790;42.668;23.298;2023-03-23T12:57:02;94650.81;;;21.79;30.30
35676;BME280;21790;42.668;23.298;2023-03-23T13:05:42;94650.56;;;21.95;28.88
35676;BME280;21790;42.668;23.298;2023-03-23T13:08:19;94655.19;;;21.93;28.93
35676;BME280;21790;42.668;23.298;2023-03-23T13:10:48;94649.69;;;21.68;29.18
35676;BME280;21790;42.668;23.298;2023-03-23T13:13:18;94645.28;;;21.73;29.06
35676;BME280;21790;42.668;23.298;2023-03-23T13:16:05;94652.16;;;21.91;29.12
35676;BME280;21790;42.668;23.298;2023-03-23T13:21:30;94645.09;;;21.84;28.83
35676;BME280;21790;42.668;23.298;2023-03-23T13:24:04;94631.53;;;22.01;29.91
35676;BME280;21790;42.668;23.298;2023-03-23T13:26:31;94631.97;;;22.05;29.52
35676;BME280;21790;42.668;23.298;2023-03-23T13:29:21;94635.66;;;22.27;28.66
35676;BME280;21790;42.668;23.298;2023-03-23T13:32:04;94635.66;;;22.14;29.25
35676;BME280;21790;42.668;23.298;2023-03-23T13:34:34;94634.47;;;21.77;29.15
35676;BME280;21790;42.668;23.298;2023-03-23T13:37:04;94634.69;;;21.79;29.04
35676;BME280;21790;42.668;23.298;2023-03-23T13:39:47;94628.66;;;21.88;29.37
35676;BME280;21790;42.668;23.298;2023-03-23T14:08:43;94607.63;;;20.94;30.71
35676;BME280;21790;42.668;23.298;2023-03-23T14:11:15;94609.63;;;21.12;30.60
35676;BME280;21790;42.668;23.298;2023-03-23T14:14:07;94612.13;;;21.53;30.17
35676;BME280;21790;42.668;23.298;2023-03-23T14:16:43;94602.59;;;21.05;30.24
35676;BME280;21790;42.668;23.298;2023-03-23T14:19:21;94602.44;;;21.35;30.30
35676;BME280;21790;42.668;23.298;2023-03-23T14:21:56;94603.72;;;20.97;30.90
35676;BME280;21790;42.668;23.298;2023-03-23T14:24:30;94598.69;;;21.46;29.92
35676;BME280;21790;42.668;23.298;2023-03-23T14:27:12;94597.25;;;21.39;29.92
35676;BME280;21790;42.668;23.298;2023-03-23T14:29:40;94610.09;;;21.35;30.33
35676;BME280;21790;42.668;23.298;2023-03-23T14:32:13;94599.69;;;21.29;30.20
35676;BME280;21790;42.668;23.298;2023-03-23T14:34:39;94603.88;;;21.42;29.86
35676;BME280;21790;42.668;23.298;2023-03-23T14:37:11;94612.78;;;21.59;29.23
35676;BME280;21790;42.668;23.298;2023-03-23T14:39:38;94610.66;;;21.14;29.93
35676;BME280;21790;42.668;23.298;2023-03-23T14:42:06;94605.56;;;20.94;30.42
35676;BME280;21790;42.668;23.298;2023-03-23T14:44:37;94615.72;;;20.78;30.51
35676;BME280;21790;42.668;23.298;2023-03-23T14:47:09;94604.25;;;21.14;30.21
35676;BME280;21790;42.668;23.298;2023-03-23T14:49:39;94603.97;;;20.61;30.88
35676;BME280;21790;42.668;23.298;2023-03-23T14:52:14;94609.81;;;20.82;30.83
35676;BME280;21790;42.668;23.298;2023-03-23T14:54:41;94607.84;;;20.77;31.28
35676;BME280;21790;42.668;23.298;2023-03-23T14:57:40;94592.53;;;21.15;31.00
35676;BME280;21790;42.668;23.298;2023-03-23T15:00:12;94598.00;;;20.89;32.50
35676;BME280;21790;42.668;23.298;2023-03-23T15:02:43;94598.50;;;20.50;34.65
35676;BME280;21790;42.668;23.298;2023-03-23T15:05:14;94590.06;;;21.06;32.82
35676;BME280;21790;42.668;23.298;2023-03-23T15:07:42;94598.81;;;21.03;31.27
35676;BME280;21790;42.668;23.298;2023-03-23T15:10:09;94595.47;;;21.04;31.38
35676;BME280;21790;42.668;23.298;2023-03-23T15:12:39;94587.97;;;20.94;31.20
35676;BME280;21790;42.668;23.298;2023-03-23T15:15:07;94578.97;;;20.58;31.97
35676;BME280;21790;42.668;23.298;2023-03-23T15:17:45;94582.34;;;20.75;31.55
35676;BME280;21790;42.668;23.298;2023-03-23T15:20:48;94576.56;;;20.86;31.49
35676;BME280;21790;42.668;23.298;2023-03-23T15:23:28;94581.09;;;21.08;31.38
35676;BME280;21790;42.668;23.298;2023-03-23T15:26:04;94581.88;;;20.71;31.86
35676;BME280;21790;42.668;23.298;2023-03-23T15:28:41;94594.38;;;20.51;32.21
35676;BME280;21790;42.668;23.298;2023-03-23T15:31:16;94589.31;;;20.25;32.41
35676;BME280;21790;42.668;23.298;2023-03-23T15:33:45;94591.66;;;20.21;32.60
35676;BME280;21790;42.668;23.298;2023-03-23T15:38:43;94595.38;;;20.54;32.20
35676;BME280;21790;42.668;23.298;2023-03-23T15:41:26;94592.34;;;20.70;31.99
35676;BME280;21790;42.668;23.298;2023-03-23T15:44:10;94597.94;;;20.52;32.58
35676;BME280;21790;42.668;23.298;2023-03-23T15:46:53;94606.16;;;20.50;32.59
35676;BME280;21790;42.668;23.298;2023-03-23T15:49:25;94602.31;;;20.71;32.21
35676;BME280;21790;42.668;23.298;2023-03-23T15:51:52;94606.00;;;20.61;32.25
35676;BME280;21790;42.668;23.298;2023-03-23T15:54:23;94606.66;;;20.48;32.34
35676;BME280;21790;42.668;23.298;2023-03-23T15:56:53;94602.50;;;20.55;32.69
35676;BME280;21790;42.668;23.298;2023-03-23T15:59:22;94607.44;;;20.49;32.75
35676;BME280;21790;42.668;23.298;2023-03-23T16:01:48;94609.66;;;20.56;32.05
35676;BME280;21790;42.668;23.298;2023-03-23T16:04:21;94604.94;;;20.64;32.57
35676;BME280;21790;42.668;23.298;2023-03-23T16:06:52;94612.38;;;20.61;32.88
35676;BME280;21790;42.668;23.298;2023-03-23T16:09:20;94609.41;;;20.29;32.66
35676;BME280;21790;42.668;23.298;2023-03-23T16:11:48;94610.09;;;20.60;32.41
35676;BME280;21790;42.668;23.298;2023-03-23T16:14:15;94611.66;;;20.12;33.53
35676;BME280;21790;42.668;23.298;2023-03-23T16:16:54;94607.69;;;20.51;32.99
35676;BME280;21790;42.668;23.298;2023-03-23T16:19:21;94615.56;;;20.52;33.03
35676;BME280;21790;42.668;23.298;2023-03-23T16:21:49;94617.97;;;20.42;33.12
35676;BME280;21790;42.668;23.298;2023-03-23T16:24:19;94618.41;;;20.46;32.95
35676;BME280;21790;42.668;23.298;2023-03-23T16:26:45;94620.31;;;20.38;33.38
35676;BME280;21790;42.668;23.298;2023-03-23T16:29:18;94623.94;;;20.33;33.25
35676;BME280;21790;42.668;23.298;2023-03-23T16:31:43;94620.47;;;20.22;33.39
35676;BME280;21790;42.668;23.298;2023-03-23T16:34:11;94628.44;;;20.42;33.18
35676;BME280;21790;42.668;23.298;2023-03-23T16:36:38;94623.22;;;20.03;33.73
35676;BME280;21790;42.668;23.298;2023-03-23T16:39:05;94620.16;;;19.77;34.48
35676;BME280;21790;42.668;23.298;2023-03-23T16:41:30;94620.41;;;20.03;33.97
35676;BME280;21790;42.668;23.298;2023-03-23T16:43:57;94614.34;;;20.23;33.68
35676;BME280;21790;42.668;23.298;2023-03-23T16:46:28;94620.47;;;20.22;34.14
35676;BME280;21790;42.668;23.298;2023-03-23T16:48:54;94621.75;;;20.21;33.86
35676;BME280;21790;42.668;23.298;2023-03-23T16:51:22;94627.06;;;20.24;34.08
35676;BME280;21790;42.668;23.298;2023-03-23T16:53:52;94626.84;;;20.22;33.93
35676;BME280;21790;42.668;23.298;2023-03-23T16:56:19;94619.63;;;20.32;33.67
35676;BME280;21790;42.668;23.298;2023-03-23T16:58:46;94630.03;;;20.08;34.09
35676;BME280;21790;42.668;23.298;2023-03-23T17:01:13;94626.09;;;20.22;33.80
35676;BME280;21790;42.668;23.298;2023-03-23T17:03:40;94624.66;;;19.55;34.92
35676;BME280;21790;42.668;23.298;2023-03-23T17:06:08;94626.16;;;19.62;34.90
35676;BME280;21790;42.668;23.298;2023-03-23T17:08:34;94624.28;;;19.70;34.55
35676;BME280;21790;42.668;23.298;2023-03-23T17:11:04;94626.22;;;19.81;34.47
35676;BME280;21790;42.668;23.298;2023-03-23T17:13:32;94631.97;;;19.64;34.67
35676;BME280;21790;42.668;23.298;2023-03-23T17:15:59;94639.25;;;19.78;34.14
35676;BME280;21790;42.668;23.298;2023-03-23T17:18:27;94639.31;;;19.73;34.29
35676;BME280;21790;42.668;23.298;2023-03-23T17:20:53;94645.69;;;19.73;34.13
35676;BME280;21790;42.668;23.298;2023-03-23T17:23:20;94635.50;;;19.70;34.43
35676;BME280;21790;42.668;23.298;2023-03-23T17:25:48;94639.94;;;19.90;34.16
35676;BME280;21790;42.668;23.298;2023-03-23T17:28:16;94641.72;;;19.87;33.95
35676;BME280;21790;42.668;23.298;2023-03-23T17:30:44;94642.84;;;19.79;34.04
35676;BME280;21790;42.668;23.298;2023-03-23T17:33:12;94643.16;;;19.70;34.34
35676;BME280;21790;42.668;23.298;2023-03-23T17:35:40;94649.88;;;19.20;34.92
35676;BME280;21790;42.668;23.298;2023-03-23T17:38:09;94643.47;;;19.25;34.83
35676;BME280;21790;42.668;23.298;2023-03-23T17:40:37;94659.03;;;19.20;34.89
35676;BME280;21790;42.668;23.298;2023-03-23T17:43:04;94663.69;;;19.07;35.08
35676;BME280;21790;42.668;23.298;2023-03-23T17:45:31;94666.16;;;19.21;34.79
35676;BME280;21790;42.668;23.298;2023-03-23T17:47:58;94665.94;;;19.19;34.95
35676;BME280;21790;42.668;23.298;2023-03-23T17:50:24;94678.13;;;19.22;34.67
35676;BME280;21790;42.668;23.298;2023-03-23T17:52:50;94665.03;;;19.41;34.62
35676;BME280;21790;42.668;23.298;2023-03-23T17:55:17;94660.91;;;19.42;34.14
35676;BME280;21790;42.668;23.298;2023-03-23T17:57:47;94673.94;;;19.45;34.60
35676;BME280;21790;42.668;23.298;2023-03-23T18:00:15;94685.44;;;19.36;34.80
35676;BME280;21790;42.668;23.298;2023-03-23T18:02:41;94678.59;;;19.26;34.85
35676;BME280;21790;42.668;23.298;2023-03-23T18:05:09;94680.38;;;19.29;35.16
35676;BME280;21790;42.668;23.298;2023-03-23T18:07:37;94680.19;;;19.16;35.23
35676;BME280;21790;42.668;23.298;2023-03-23T18:10:05;94687.81;;;19.21;34.82
35676;BME280;21790;42.668;23.298;2023-03-23T18:12:39;94686.84;;;19.13;34.68
35676;BME280;21790;42.668;23.298;2023-03-23T18:15:07;94700.75;;;18.77;35.47
35676;BME280;21790;42.668;23.298;2023-03-23T18:17:33;94688.81;;;18.71;35.53
35676;BME280;21790;42.668;23.298;2023-03-23T18:20:06;94695.63;;;18.93;35.29
35676;BME280;21790;42.668;23.298;2023-03-23T18:22:37;94706.19;;;18.59;35.78
35676;BME280;21790;42.668;23.298;2023-03-23T18:25:08;94702.50;;;18.86;35.25
35676;BME280;21790;42.668;23.298;2023-03-23T18:27:35;94705.63;;;18.66;35.48
35676;BME280;21790;42.668;23.298;2023-03-23T18:30:02;94697.41;;;18.90;34.92
35676;BME280;21790;42.668;23.298;2023-03-23T18:32:36;94692.13;;;18.75;35.04
35676;BME280;21790;42.668;23.298;2023-03-23T18:35:05;94707.44;;;18.63;34.98
35676;BME280;21790;42.668;23.298;2023-03-23T18:37:34;94699.00;;;18.69;34.77
35676;BME280;21790;42.668;23.298;2023-03-23T18:40:06;94701.59;;;18.50;35.34
35676;BME280;21790;42.668;23.298;2023-03-23T18:42:36;94710.31;;;18.13;35.77
35676;BME280;21790;42.668;23.298;2023-03-23T18:45:02;94698.06;;;18.27;35.12
35676;BME280;21790;42.668;23.298;2023-03-23T18:49:56;94715.03;;;18.68;34.87
35676;BME280;21790;42.668;23.298;2023-03-23T18:52:26;94716.84;;;18.60;34.66
35676;BME280;21790;42.668;23.298;2023-03-23T18:54:58;94716.84;;;18.60;34.86
35676;BME280;21790;42.668;23.298;2023-03-23T18:57:25;94718.13;;;18.59;34.79
35676;BME280;21790;42.668;23.298;2023-03-23T18:59:52;94718.94;;;18.32;35.37
35676;BME280;21790;42.668;23.298;2023-03-23T19:02:18;94716.16;;;18.32;35.30
35676;BME280;21790;42.668;23.298;2023-03-23T19:04:44;94728.34;;;18.29;35.48
35676;BME280;21790;42.668;23.298;2023-03-23T19:07:11;94728.31;;;18.46;35.14
35676;BME280;21790;42.668;23.298;2023-03-23T19:09:41;94728.56;;;18.53;34.97
35676;BME280;21790;42.668;23.298;2023-03-23T19:12:09;94733.16;;;18.34;35.23
35676;BME280;21790;42.668;23.298;2023-03-23T19:14:52;94730.13;;;18.26;35.89
35676;BME280;21790;42.668;23.298;2023-03-23T19:17:20;94739.31;;;17.99;36.15
35676;BME280;21790;42.668;23.298;2023-03-23T19:19:50;94732.69;;;17.96;36.24
35676;BME280;21790;42.668;23.298;2023-03-23T19:22:20;94743.63;;;18.06;36.38
35676;BME280;21790;42.668;23.298;2023-03-23T19:24:45;94736.00;;;17.84;36.82
35676;BME280;21790;42.668;23.298;2023-03-23T19:27:15;94740.84;;;17.83;37.21
35676;BME280;21790;42.668;23.298;2023-03-23T19:29:46;94750.72;;;17.73;37.00